Time,TemperatureF,DewpointF,PressureIn,WindDirection,WindDirectionDegrees,WindSpeedMPH,WindSpeedGustMPH,Humidity,HourlyPrecipIn,Conditions,Clouds,dailyrainin,SoftwareType,DateUTC
2013-06-29 00:00:00,67.3,60.2,29.64,WNW,284,3.0,3.0,78,0.00,,BKN027,-99.99,VWS V12.06,2013-06-29 04:00:00,
2013-06-29 00:02:00,65.3,61.0,29.61,SW,217,3.0,4.0,86,0.00,,BKN027,-99.99,VWS V12.06,2013-06-29 04:02:00,
2013-06-29 00:30:00,67.3,60.6,29.63,WNW,291,7.0,8.0,79,0.00,,BKN027,-99.99,VWS V12.06,2013-06-29 04:30:00,
2013-06-29 00:32:00,65.4,61.1,29.61,WNW,288,1.0,1.0,86,0.00,,BKN027,-99.99,VWS V12.06,2013-06-29 04:32:00,
2013-06-29 01:00:00,66.8,60.8,29.63,WNW,282,2.0,7.0,81,0.00,,CLR,-99.99,VWS V12.06,2013-06-29 05:00:00,
2013-06-29 01:30:00,66.3,60.7,29.60,WSW,254,1.0,2.0,82,0.00,,CLR,-99.99,VWS V12.06,2013-06-29 05:30:00,
2013-06-29 02:00:00,65.3,60.0,29.60,West,272,4.0,4.0,83,0.00,,CLR,-99.99,VWS V12.06,2013-06-29 06:00:00,
2013-06-29 02:30:00,66.0,60.7,29.60,WSW,242,1.0,2.0,83,0.00,,CLR,-99.99,VWS V12.06,2013-06-29 06:30:00,
2013-06-29 03:00:00,65.0,60.4,29.57,WNW,294,4.0,5.0,85,0.00,,CLR,-99.99,VWS V12.06,2013-06-29 07:00:00,
2013-06-29 03:30:00,65.2,60.2,29.58,WSW,242,2.0,6.0,84,0.00,,CLR,-99.99,VWS V12.06,2013-06-29 07:30:00,
2013-06-29 04:00:00,65.5,60.2,29.58,NNW,332,4.0,4.0,83,0.00,,CLR,-99.99,VWS V12.06,2013-06-29 08:00:00,
2013-06-29 04:30:00,65.9,60.3,29.59,South,183,1.0,1.0,82,0.00,,CLR,-99.99,VWS V12.06,2013-06-29 08:30:00,
2013-06-29 05:00:00,64.7,59.8,29.60,SSE,148,4.0,6.0,84,0.00,,CLR,-99.99,VWS V12.06,2013-06-29 09:00:00,
2013-06-29 05:30:00,63.6,59.7,29.60,SSW,192,0.0,0.0,87,0.00,,CLR,-99.99,VWS V12.06,2013-06-29 09:30:00,
2013-06-29 06:00:00,63.1,60.1,29.61,South,190,1.0,1.0,90,0.00,,OVC100,-99.99,VWS V12.06,2013-06-29 10:00:00,
2013-06-29 06:30:00,63.8,60.8,29.61,WSW,241,0.0,0.0,90,0.00,,OVC100,-99.99,VWS V12.06,2013-06-29 10:30:00,
2013-06-29 07:00:00,64.2,60.9,29.61,South,188,3.0,3.0,89,0.00,,OVC095,-99.99,VWS V12.06,2013-06-29 11:00:00,
2013-06-29 07:30:00,64.8,61.5,29.62,SSW,198,0.0,0.0,89,0.00,,OVC095,-99.99,VWS V12.06,2013-06-29 11:30:00,
2013-06-29 08:00:00,64.3,61.3,29.63,West,269,2.0,3.0,90,0.00,,OVC025,-99.99,VWS V12.06,2013-06-29 12:00:00,
2013-06-29 08:30:00,64.3,61.3,29.64,South,183,1.0,1.0,90,0.00,,OVC025,-99.99,VWS V12.06,2013-06-29 12:30:00,
2013-06-29 09:00:00,65.1,60.8,29.64,West,265,4.0,4.0,86,0.00,,OVC025,-99.99,VWS V12.06,2013-06-29 13:00:00,
2013-06-29 09:30:00,66.4,60.4,29.64,West,264,0.0,2.0,81,0.00,,OVC075,-99.99,VWS V12.06,2013-06-29 13:30:00,
2013-06-29 10:00:00,69.9,61.6,29.64,WSW,250,2.0,5.0,75,0.00,,BKN110,-99.99,VWS V12.06,2013-06-29 14:00:00,
2013-06-29 10:30:00,71.8,61.9,29.64,West,281,3.0,4.0,71,0.00,,BKN110,-99.99,VWS V12.06,2013-06-29 14:30:00,
2013-06-29 11:00:00,74.0,63.2,29.64,West,263,6.0,6.0,69,0.00,,BKN032,-99.99,VWS V12.06,2013-06-29 15:00:00,
2013-06-29 11:30:00,74.7,62.6,29.64,SE,124,1.0,1.0,66,0.00,,BKN032,-99.99,VWS V12.06,2013-06-29 15:30:00,
2013-06-29 12:00:00,75.2,64.3,29.64,WSW,238,2.0,4.0,69,0.00,,SCT055,-99.99,VWS V12.06,2013-06-29 16:00:00,
2013-06-29 12:30:00,75.1,64.2,29.64,South,191,0.0,2.0,69,0.00,,SCT055,-99.99,VWS V12.06,2013-06-29 16:30:00,
2013-06-29 13:00:00,75.1,63.4,29.64,SW,225,2.0,2.0,67,0.00,,CLR,-99.99,VWS V12.06,2013-06-29 17:00:00,
2013-06-29 13:30:00,74.3,64.7,29.64,SSE,152,1.0,2.0,72,0.00,,CLR,-99.99,VWS V12.06,2013-06-29 17:30:00,
2013-06-29 14:00:00,76.7,65.3,29.64,NNW,332,2.0,2.0,68,0.00,,SCT070,-99.99,VWS V12.06,2013-06-29 18:00:00,
2013-06-29 14:30:00,77.9,66.9,29.63,SW,224,3.0,5.0,69,0.00,,SCT070,-99.99,VWS V12.06,2013-06-29 18:30:00,
2013-06-29 15:00:00,77.0,67.7,29.63,SW,220,3.0,3.0,73,0.00,,BKN085,-99.99,VWS V12.06,2013-06-29 19:00:00,
2013-06-29 15:30:00,79.5,64.9,29.62,SE,146,2.0,3.0,61,0.00,,BKN085,-99.99,VWS V12.06,2013-06-29 19:30:00,
2013-06-29 16:00:00,75.8,65.3,29.62,SSW,202,0.0,0.0,70,0.00,,CLR,-99.99,VWS V12.06,2013-06-29 20:00:00,
2013-06-29 16:30:00,74.7,65.1,29.62,SSW,201,2.0,3.0,72,0.00,,CLR,-99.99,VWS V12.06,2013-06-29 20:30:00,
2013-06-29 17:00:00,79.1,63.6,29.62,SSW,204,1.0,1.0,59,0.00,,CLR,-99.99,VWS V12.06,2013-06-29 21:00:00,
2013-06-29 17:30:00,80.0,65.4,29.62,South,178,0.0,0.0,61,0.00,,CLR,-99.99,VWS V12.06,2013-06-29 21:30:00,
2013-06-29 18:00:00,79.6,62.0,29.62,West,268,0.0,3.0,55,0.00,,CLR,-99.99,VWS V12.06,2013-06-29 22:00:00,
2013-06-29 18:30:00,79.2,62.2,29.61,SE,136,0.0,0.0,56,0.00,,CLR,-99.99,VWS V12.06,2013-06-29 22:30:00,
2013-06-29 19:00:00,78.9,63.8,29.62,SW,236,0.0,0.0,60,0.00,,CLR,-99.99,VWS V12.06,2013-06-29 23:00:00,
2013-06-29 19:30:00,78.3,63.8,29.63,SSW,200,0.0,1.0,61,0.00,,CLR,-99.99,VWS V12.06,2013-06-29 23:30:00,
2013-06-29 20:00:00,73.9,61.0,29.64,WSW,238,0.0,1.0,64,0.00,,CLR,-99.99,VWS V12.06,2013-06-30 00:00:00,
2013-06-29 20:30:00,71.6,58.8,29.64,SW,214,0.0,0.0,64,0.00,,CLR,-99.99,VWS V12.06,2013-06-30 00:30:00,
2013-06-29 21:00:00,70.0,57.7,29.65,SW,224,0.0,0.0,65,0.00,,CLR,-99.99,VWS V12.06,2013-06-30 01:00:00,
2013-06-29 21:30:00,69.2,57.0,29.66,WSW,257,0.0,2.0,65,0.00,,CLR,-99.99,VWS V12.06,2013-06-30 01:30:00,
2013-06-29 22:00:00,70.3,55.8,29.67,WSW,240,1.0,1.0,60,0.00,,CLR,-99.99,VWS V12.06,2013-06-30 02:00:00,
2013-06-29 22:30:00,70.7,57.5,29.68,SSW,203,0.0,0.0,63,0.00,,CLR,-99.99,VWS V12.06,2013-06-30 02:30:00,
2013-06-29 23:00:00,69.8,59.2,29.68,NNW,330,0.0,0.0,69,0.00,,SCT085,-99.99,VWS V12.06,2013-06-30 03:00:00,
2013-06-29 23:30:00,68.9,59.9,29.68,ESE,104,0.0,0.0,73,0.00,,SCT085,-99.99,VWS V12.06,2013-06-30 03:30:00,